Time;durP1;ratioP1;P1;durP2;ratioP2;P2;SDS_P1;SDS_P2;PMS_P1;PMS_P2;Temp;Humidity;BMP_temperature;BMP_pressure;BME280_temperature;BME280_humidity;BME280_pressure;Samples;Min_cycle;Max_cycle;Signal;HPM_P1;HPM_P2
2021/04/04 00:00:24;;;;;;;47.75;10.52;;;3.80;99.90;;;;;;5042696;28;20078;-53
2021/04/04 00:02:50;;;;;;;44.70;9.23;;;3.90;99.90;;;;;;5060689;28;20097;-60
2021/04/04 00:05:16;;;;;;;48.33;9.45;;;3.80;99.90;;;;;;5061869;28;20040;-58
2021/04/04 00:07:42;;;;;;;49.20;9.43;;;3.70;99.90;;;;;;5061670;28;20119;-59
2021/04/04 00:10:10;;;;;;;55.38;10.73;;;3.70;99.90;;;;;;5060936;28;20087;-59
2021/04/04 00:12:37;;;;;;;56.60;10.85;;;3.70;99.90;;;;;;5059765;28;20041;-60
2021/04/04 00:15:05;;;;;;;54.03;10.82;;;3.70;99.90;;;;;;5044247;28;20045;-60
2021/04/04 00:17:30;;;;;;;49.08;9.48;;;3.70;99.90;;;;;;5007709;28;20037;-55
2021/04/04 00:19:56;;;;;;;40.88;8.80;;;3.70;99.90;;;;;;5007913;28;20485;-59
2021/04/04 00:22:21;;;;;;;;;;;3.70;99.90;;;;;;5008141;28;20045;-58
2021/04/04 00:24:47;;;;;;;33.38;7.00;;;3.80;99.90;;;;;;5008412;28;19920;-60
2021/04/04 00:27:13;;;;;;;45.38;9.45;;;3.90;99.90;;;;;;5017855;28;20033;-58
2021/04/04 00:29:38;;;;;;;50.17;9.43;;;3.90;99.90;;;;;;5039080;28;20481;-60
2021/04/04 00:32:04;;;;;;;34.53;7.18;;;3.90;99.90;;;;;;5046670;28;20041;-59
2021/04/04 00:34:30;;;;;;;42.75;9.48;;;3.90;99.90;;;;;;5047051;28;20052;-59
2021/04/04 00:36:56;;;;;;;36.97;7.72;;;3.90;99.90;;;;;;5047520;28;20041;-59
2021/04/04 00:39:22;;;;;;;37.22;8.63;;;3.90;99.90;;;;;;5046933;28;20040;-59
2021/04/04 00:41:48;;;;;;;42.78;9.25;;;3.90;99.90;;;;;;5046032;28;20432;-59
2021/04/04 00:44:13;;;;;;;50.28;9.25;;;3.70;99.90;;;;;;5046979;28;20041;-59
2021/04/04 00:46:39;;;;;;;;;;;3.70;99.90;;;;;;5047475;28;20094;-57
2021/04/04 00:49:05;;;;;;;54.70;10.13;;;3.60;99.90;;;;;;5042820;28;19944;-51
2021/04/04 00:51:35;;;;;;;45.92;10.30;;;3.60;99.90;;;;;;5026427;28;20037;-59
2021/04/04 00:54:02;;;;;;;31.67;9.05;;;3.70;99.90;;;;;;5027238;28;20597;-60
2021/04/04 00:56:28;;;;;;;42.50;7.97;;;3.60;99.90;;;;;;5026713;28;20053;-59
2021/04/04 00:58:54;;;;;;;38.55;8.43;;;3.70;99.90;;;;;;5034643;28;20049;-59
2021/04/04 01:01:22;;;;;;;46.55;9.02;;;3.70;99.90;;;;;;5045207;28;20029;-58
2021/04/04 01:03:48;;;;;;;28.20;6.40;;;3.60;99.90;;;;;;5046423;28;20107;-58
2021/04/04 01:06:14;;;;;;;44.13;11.27;;;3.60;99.90;;;;;;5043327;28;20040;-56
2021/04/04 01:08:40;;;;;;;42.03;8.00;;;3.60;99.90;;;;;;5026955;28;20045;-58
2021/04/04 01:11:08;;;;;;;37.50;8.93;;;3.50;99.90;;;;;;5026254;28;20038;-52
2021/04/04 01:13:47;;;;;;;32.00;7.57;;;3.60;99.90;;;;;;5026687;28;20041;-58
2021/04/04 01:16:30;;;;;;;35.03;7.25;;;3.60;99.90;;;;;;5024045;28;20185;-54
2021/04/04 01:19:02;;;;;;;45.20;8.20;;;3.70;99.90;;;;;;5025180;28;20259;-54
2021/04/04 01:21:50;;;;;;;32.75;7.15;;;3.60;99.90;;;;;;5024282;28;20080;-52
2021/04/04 01:24:37;;;;;;;38.08;7.78;;;3.60;99.90;;;;;;5026188;28;20069;-56
2021/04/04 01:27:27;;;;;;;26.85;6.50;;;3.60;99.90;;;;;;5026649;28;20714;-58
2021/04/04 01:29:54;;;;;;;36.30;7.78;;;3.50;99.90;;;;;;5039404;28;20064;-56
2021/04/04 01:32:21;;;;;;;35.78;7.03;;;3.40;99.90;;;;;;5025869;28;20042;-56
2021/04/04 01:34:48;;;;;;;42.63;7.22;;;3.30;99.90;;;;;;5027030;28;20055;-57
2021/04/04 01:37:14;;;;;;;37.90;7.32;;;3.20;99.90;;;;;;5026651;28;20037;-57
2021/04/04 01:39:44;;;;;;;31.52;7.00;;;3.20;99.90;;;;;;5025608;28;20560;-57
2021/04/04 01:42:12;;;;;;;31.92;6.82;;;3.20;99.90;;;;;;5025982;28;20643;-55
2021/04/04 01:44:42;;;;;;;30.42;7.07;;;3.20;99.90;;;;;;5026253;28;20049;-56
2021/04/04 01:47:09;;;;;;;31.17;6.88;;;3.20;99.90;;;;;;5025929;28;20033;-59
2021/04/04 01:49:36;;;;;;;34.45;8.35;;;3.30;99.90;;;;;;5025928;28;20796;-51
2021/04/04 01:52:02;;;;;;;30.92;6.72;;;3.30;99.90;;;;;;5025698;28;20041;-56
2021/04/04 01:54:30;;;;;;;34.20;6.63;;;3.40;99.90;;;;;;5025928;28;20045;-54
2021/04/04 01:56:57;;;;;;;39.00;7.38;;;3.30;99.90;;;;;;5024910;28;20080;-54
2021/04/04 01:59:23;;;;;;;31.60;6.70;;;3.40;99.90;;;;;;5037827;28;20066;-58
2021/04/04 02:01:49;;;;;;;26.30;6.13;;;3.40;99.90;;;;;;5045015;28;20049;-59
2021/04/04 02:04:17;;;;;;;41.47;7.72;;;3.40;99.90;;;;;;5045644;28;20071;-59
2021/04/04 02:06:43;;;;;;;44.65;7.43;;;3.50;99.90;;;;;;5038891;28;20045;-57
2021/04/04 02:09:11;;;;;;;54.92;9.85;;;3.40;99.90;;;;;;5025644;28;20049;-56
2021/04/04 02:11:38;;;;;;;30.23;8.43;;;3.30;99.90;;;;;;5024838;28;20149;-59
2021/04/04 02:14:10;;;;;;;32.22;6.70;;;3.20;99.90;;;;;;5025950;28;20072;-57
2021/04/04 02:16:38;;;;;;;30.13;7.35;;;3.20;99.90;;;;;;5025092;28;20148;-57
2021/04/04 02:19:12;;;;;;;37.95;8.07;;;3.10;99.90;;;;;;5025244;28;20069;-59
2021/04/04 02:21:40;;;;;;;38.13;8.45;;;3.20;99.90;;;;;;5023542;28;20045;-60
2021/04/04 02:24:06;;;;;;;36.80;6.72;;;3.20;99.90;;;;;;5025405;28;20049;-57
2021/04/04 02:26:33;;;;;;;34.28;6.57;;;3.20;99.90;;;;;;5024876;28;20069;-56
2021/04/04 02:29:00;;;;;;;43.55;7.10;;;3.20;99.90;;;;;;5033670;28;20059;-56
2021/04/04 02:31:30;;;;;;;30.20;7.30;;;3.20;99.90;;;;;;5044568;28;20102;-58
2021/04/04 02:34:02;;;;;;;34.45;8.00;;;3.20;99.90;;;;;;5044954;28;20053;-58
2021/04/04 02:36:30;;;;;;;49.70;9.30;;;3.10;99.90;;;;;;5045590;28;20048;-54
2021/04/04 02:39:25;;;;;;;52.53;10.80;;;3.00;99.90;;;;;;5045026;28;20076;-60
2021/04/04 02:41:52;;;;;;;47.22;10.30;;;2.90;99.90;;;;;;5044269;28;20048;-56
2021/04/04 02:44:18;;;;;;;54.75;9.48;;;2.90;99.90;;;;;;5045677;28;20080;-57
2021/04/04 02:46:57;;;;;;;42.42;8.88;;;2.80;99.90;;;;;;5044780;28;20065;-56
2021/04/04 02:49:29;;;;;;;48.53;11.02;;;2.90;99.90;;;;;;5040532;28;20093;-55
2021/04/04 02:51:58;;;;;;;38.47;8.88;;;2.90;99.90;;;;;;5025386;28;20049;-56
2021/04/04 02:54:26;;;;;;;39.72;9.27;;;2.90;99.90;;;;;;5024824;28;20049;-56
2021/04/04 02:56:55;;;;;;;40.00;8.55;;;3.00;99.90;;;;;;5021662;28;20041;-56
2021/04/04 02:59:43;;;;;;;36.45;8.32;;;3.00;99.90;;;;;;5033053;28;20037;-56
2021/04/04 03:02:15;;;;;;;37.10;8.07;;;3.10;99.90;;;;;;5024081;28;20132;-55
2021/04/04 03:04:42;;;;;;;48.00;9.15;;;3.10;99.90;;;;;;5025522;28;20120;-52
2021/04/04 03:07:11;;;;;;;42.30;9.48;;;3.00;99.90;;;;;;5025037;28;20095;-53
2021/04/04 03:09:40;;;;;;;50.75;9.27;;;3.00;99.90;;;;;;5025103;28;20037;-56
2021/04/04 03:12:07;;;;;;;53.15;9.20;;;3.00;99.90;;;;;;5024794;28;20036;-55
2021/04/04 03:14:35;;;;;;;35.55;8.07;;;2.90;99.90;;;;;;5025092;28;20045;-56
2021/04/04 03:17:01;;;;;;;40.50;8.98;;;3.00;99.90;;;;;;5024237;28;20103;-56
2021/04/04 03:19:28;;;;;;;31.95;7.88;;;3.00;99.90;;;;;;5025020;28;20607;-52
2021/04/04 03:21:55;;;;;;;23.58;6.30;;;3.00;99.90;;;;;;5024753;28;20080;-55
2021/04/04 03:24:24;;;;;;;40.15;7.18;;;3.00;99.90;;;;;;5024434;28;20041;-58
2021/04/04 03:26:50;;;;;;;35.08;7.47;;;3.00;99.90;;;;;;5024909;28;20048;-58
2021/04/04 03:29:17;;;;;;;40.30;9.13;;;3.10;99.90;;;;;;5035349;28;20045;-56
2021/04/04 03:31:43;;;;;;;40.20;7.53;;;3.10;99.90;;;;;;5043712;28;20072;-58
2021/04/04 03:34:09;;;;;;;35.22;7.40;;;3.10;99.90;;;;;;5045348;28;20045;-57
2021/04/04 03:36:35;;;;;;;36.28;7.53;;;3.10;99.90;;;;;;5044834;28;20048;-58
2021/04/04 03:39:02;;;;;;;33.00;6.50;;;2.90;99.90;;;;;;5044671;28;20041;-58
2021/04/04 03:41:30;;;;;;;17.45;5.57;;;2.90;99.90;;;;;;5043903;28;20112;-54
2021/04/04 03:43:57;;;;;;;29.08;6.10;;;2.90;99.90;;;;;;5044922;28;20045;-58
2021/04/04 03:46:27;;;;;;;33.28;6.28;;;2.90;99.90;;;;;;5044580;28;20052;-55
2021/04/04 03:48:55;;;;;;;26.55;6.28;;;2.90;99.90;;;;;;5043693;28;20112;-58
2021/04/04 03:51:26;;;;;;;38.78;6.07;;;3.00;99.90;;;;;;5028250;28;20034;-59
2021/04/04 03:53:54;;;;;;;28.30;6.65;;;2.90;99.90;;;;;;5027735;28;20076;-51
2021/04/04 03:56:35;;;;;;;30.25;6.55;;;2.80;99.90;;;;;;5028001;28;20807;-54
2021/04/04 03:59:06;;;;;;;33.60;6.25;;;2.90;99.90;;;;;;5037128;28;20063;-56
2021/04/04 04:01:35;;;;;;;21.40;5.65;;;2.90;99.90;;;;;;5047428;28;20120;-56
2021/04/04 04:04:03;;;;;;;39.25;7.22;;;2.80;99.90;;;;;;5048246;28;20525;-52
2021/04/04 04:06:33;;;;;;;30.95;5.75;;;2.80;99.90;;;;;;5048360;28;20045;-55
2021/04/04 04:09:06;;;;;;;33.50;7.28;;;2.80;99.90;;;;;;5035980;28;20069;-56
2021/04/04 04:11:32;;;;;;;33.30;7.22;;;2.80;99.90;;;;;;5046391;28;20029;-58
2021/04/04 04:14:00;;;;;;;21.40;5.65;;;2.80;99.90;;;;;;5035499;28;20045;-54
2021/04/04 04:16:27;;;;;;;16.52;5.07;;;2.70;99.90;;;;;;5031463;28;20041;-57
2021/04/04 04:18:52;;;;;;;22.92;5.78;;;2.70;99.90;;;;;;5047090;28;20128;-57
2021/04/04 04:21:18;;;;;;;29.40;7.35;;;2.70;99.90;;;;;;5046963;28;20128;-57
2021/04/04 04:23:45;;;;;;;27.05;5.63;;;2.70;99.90;;;;;;5047114;28;20041;-52
2021/04/04 04:26:13;;;;;;;39.95;8.88;;;2.70;99.90;;;;;;5046381;28;20214;-58
2021/04/04 04:28:41;;;;;;;28.33;6.97;;;2.70;99.90;;;;;;5035641;28;20045;-58
2021/04/04 04:31:09;;;;;;;24.70;5.70;;;2.70;99.90;;;;;;5022221;28;20036;-57
2021/04/04 04:33:35;;;;;;;28.40;8.00;;;2.70;99.90;;;;;;5027555;28;20037;-56
2021/04/04 04:36:03;;;;;;;28.40;7.88;;;2.70;99.90;;;;;;5027354;28;20168;-55
2021/04/04 04:38:29;;;;;;;34.42;7.68;;;2.70;99.90;;;;;;5026710;28;20041;-58
2021/04/04 04:40:56;;;;;;;29.33;7.72;;;2.80;99.90;;;;;;5025820;28;20068;-58
2021/04/04 04:43:22;;;;;;;25.13;7.80;;;2.80;99.90;;;;;;5026616;28;20080;-58
2021/04/04 04:45:51;;;;;;;35.33;8.77;;;2.70;99.90;;;;;;5026553;28;20057;-58
2021/04/04 04:48:16;;;;;;;38.83;8.27;;;2.80;99.90;;;;;;5027272;28;20045;-58
2021/04/04 04:50:43;;;;;;;30.23;8.85;;;2.80;99.90;;;;;;5026659;28;20048;-58
2021/04/04 04:53:10;;;;;;;27.83;8.57;;;2.70;99.90;;;;;;5027743;28;20103;-58
2021/04/04 04:55:38;;;;;;;33.95;9.48;;;2.70;99.90;;;;;;5055187;22;20054;-69
2021/04/04 04:58:05;;;;;;;32.35;8.43;;;2.60;99.90;;;;;;5048461;28;20051;-69
2021/04/04 05:00:32;;;;;;;24.42;7.43;;;2.60;99.90;;;;;;5070840;28;20040;-68
2021/04/04 05:02:58;;;;;;;32.03;8.77;;;2.60;99.90;;;;;;5070738;28;20044;-70
2021/04/04 05:05:24;;;;;;;37.83;9.70;;;2.70;99.90;;;;;;5086127;28;21566;-70
2021/04/04 05:07:53;;;;;;;35.35;10.50;;;2.70;99.90;;;;;;5069271;28;20040;-70
2021/04/04 05:10:21;;;;;;;38.47;9.90;;;2.70;99.90;;;;;;5071237;28;20043;-68
2021/04/04 05:13:03;;;;;;;26.10;9.07;;;2.70;99.90;;;;;;5069340;28;20119;-68
2021/04/04 05:15:30;;;;;;;37.08;9.23;;;2.80;99.90;;;;;;5070241;28;20067;-69
2021/04/04 05:17:55;;;;;;;29.27;9.18;;;2.70;99.90;;;;;;5071086;28;20072;-69
2021/04/04 05:20:22;;;;;;;29.73;9.30;;;2.70;99.90;;;;;;5070669;28;20071;-70
2021/04/04 05:22:48;;;;;;;34.17;8.30;;;2.80;99.90;;;;;;5088206;28;20125;-65
2021/04/04 05:25:14;;;;;;;37.00;8.43;;;2.80;99.90;;;;;;5088875;28;20093;-66
2021/04/04 05:27:41;;;;;;;29.67;9.18;;;2.80;99.90;;;;;;5064934;28;20048;-66
2021/04/04 05:30:10;;;;;;;30.30;8.85;;;2.80;99.90;;;;;;5073525;28;20322;-67
2021/04/04 05:32:49;;;;;;;30.63;9.38;;;2.90;99.90;;;;;;5070548;28;20063;-66
2021/04/04 05:35:17;;;;;;;31.65;8.40;;;2.90;99.90;;;;;;5052022;28;20036;-66
2021/04/04 05:37:44;;;;;;;42.33;9.07;;;2.80;99.90;;;;;;5051053;28;20370;-65
2021/04/04 05:40:20;;;;;;;30.98;7.75;;;2.70;99.90;;;;;;5050921;28;20052;-69
2021/04/04 05:42:52;;;;;;;25.35;7.55;;;2.70;99.90;;;;;;5049220;28;20047;-67
2021/04/04 05:45:36;;;;;;;31.58;8.00;;;2.80;99.90;;;;;;5050831;28;20032;-68
2021/04/04 05:48:32;;;;;;;25.08;6.65;;;2.80;99.90;;;;;;5051172;28;20029;-69
2021/04/04 05:51:33;;;;;;;27.00;7.18;;;2.90;99.90;;;;;;5081683;28;20040;-67
2021/04/04 05:54:01;;;;;;;22.00;6.60;;;2.80;99.90;;;;;;5050267;28;20472;-68
2021/04/04 05:56:34;;;;;;;28.33;7.13;;;2.70;99.90;;;;;;5052385;28;20601;-71
2021/04/04 05:59:04;;;;;;;34.78;7.22;;;2.40;99.90;;;;;;5061501;28;20036;-66
2021/04/04 06:01:33;;;;;;;42.30;7.70;;;2.30;99.90;;;;;;5069034;28;20050;-66
2021/04/04 06:04:07;;;;;;;34.65;7.28;;;2.30;99.90;;;;;;5069463;28;20123;-68
2021/04/04 06:07:04;;;;;;;25.23;6.68;;;2.40;99.90;;;;;;5069929;28;20047;-68
2021/04/04 06:09:53;;;;;;;26.38;7.10;;;2.60;99.90;;;;;;5069459;28;20040;-65
2021/04/04 06:12:51;;;;;;;22.80;6.63;;;2.70;99.90;;;;;;5052921;28;20040;-69
2021/04/04 06:15:37;;;;;;;17.48;5.90;;;2.80;99.90;;;;;;5049326;28;20041;-67
2021/04/04 06:18:12;;;;;;;29.95;8.27;;;2.90;99.90;;;;;;5049937;28;20128;-70
2021/04/04 06:20:41;;;;;;;27.98;7.22;;;2.90;99.90;;;;;;5049384;28;20036;-70
2021/04/04 06:23:25;;;;;;;30.55;7.90;;;2.90;99.90;;;;;;5049337;28;20053;-67
2021/04/04 06:26:08;;;;;;;26.95;6.55;;;2.70;99.90;;;;;;5055193;28;20036;-68
2021/04/04 06:28:59;;;;;;;29.88;7.20;;;2.60;99.90;;;;;;5074061;28;20074;-69
2021/04/04 06:31:53;;;;;;;29.60;7.47;;;2.60;99.90;;;;;;5065207;28;20119;-67
2021/04/04 06:34:18;;;;;;;32.70;8.25;;;2.70;99.90;;;;;;5066052;28;20063;-69
2021/04/04 06:36:56;;;;;;;32.58;8.35;;;2.60;99.90;;;;;;5066347;28;20461;-68
2021/04/04 06:39:24;;;;;;;23.08;7.32;;;2.60;99.90;;;;;;5065456;28;20044;-68
2021/04/04 06:41:51;;;;;;;28.35;8.38;;;2.80;99.90;;;;;;5065684;28;20040;-67
2021/04/04 06:44:19;;;;;;;31.48;8.95;;;2.80;99.90;;;;;;5065759;28;20053;-66
2021/04/04 06:46:54;;;;;;;28.50;8.85;;;2.80;99.90;;;;;;5065192;28;20041;-66
2021/04/04 06:49:41;;;;;;;39.47;9.52;;;2.90;99.90;;;;;;5070595;28;20031;-67
2021/04/04 06:52:28;;;;;;;24.20;7.13;;;2.90;99.90;;;;;;5087964;28;20047;-67
2021/04/04 06:55:05;;;;;;;28.10;8.18;;;2.90;99.90;;;;;;5069189;28;20052;-69
2021/04/04 06:58:04;;;;;;;26.48;6.85;;;3.00;99.90;;;;;;5069572;28;20054;-66
2021/04/04 07:00:42;;;;;;;27.55;7.00;;;3.00;99.90;;;;;;5062868;28;20042;-68
2021/04/04 07:03:20;;;;;;;33.25;6.60;;;3.00;99.90;;;;;;5066899;28;20123;-69
2021/04/04 07:05:46;;;;;;;34.10;7.13;;;3.10;99.90;;;;;;5066621;28;20542;-68
2021/04/04 07:08:24;;;;;;;19.70;7.15;;;3.10;99.90;;;;;;5064059;28;20036;-70
2021/04/04 07:10:59;;;;;;;23.38;6.03;;;3.20;99.80;;;;;;5082514;28;20480;-68
2021/04/04 07:13:49;;;;;;;30.02;6.72;;;3.10;99.60;;;;;;5067177;28;20044;-66
2021/04/04 07:16:34;;;;;;;27.25;6.00;;;3.10;99.90;;;;;;5050137;28;20040;-67
2021/04/04 07:19:32;;;;;;;33.00;9.73;;;3.10;99.90;;;;;;5049360;28;20181;-67
2021/04/04 07:22:28;;;;;;;64.22;30.83;;;3.10;99.90;;;;;;5049375;28;20512;-69
2021/04/04 07:25:00;;;;;;;28.67;7.60;;;3.20;99.90;;;;;;5050971;28;20684;-68
2021/04/04 07:27:57;;;;;;;35.40;7.32;;;3.20;99.90;;;;;;5063743;28;20048;-69
2021/04/04 07:30:35;;;;;;;27.00;6.82;;;3.00;99.90;;;;;;5060357;28;20077;-69
2021/04/04 07:33:14;;;;;;;24.35;7.50;;;2.90;99.90;;;;;;5069515;28;20517;-70
2021/04/04 07:35:53;;;;;;;28.13;6.47;;;3.00;99.90;;;;;;5073478;28;20040;-66
2021/04/04 07:38:31;;;;;;;31.02;6.32;;;2.90;99.90;;;;;;5052977;28;20033;-67
2021/04/04 07:41:04;;;;;;;29.17;6.20;;;2.90;99.90;;;;;;5052887;28;20040;-68
2021/04/04 07:43:49;;;;;;;34.00;7.05;;;2.90;99.90;;;;;;5051271;28;20041;-67
2021/04/04 07:46:42;;;;;;;25.77;8.15;;;2.90;99.90;;;;;;5052990;28;20054;-68
2021/04/04 07:49:53;;;;;;;35.65;7.60;;;2.90;99.90;;;;;;5054926;28;20051;-68
2021/04/04 07:52:23;;;;;;;37.92;10.68;;;3.00;99.90;;;;;;5078844;28;20051;-68
2021/04/04 07:55:09;;;;;;;29.80;7.75;;;2.80;99.90;;;;;;5052338;28;20044;-67
2021/04/04 07:57:53;;;;;;;28.05;7.63;;;3.00;99.90;;;;;;5064527;28;20131;-68
2021/04/04 08:00:20;;;;;;;32.85;8.27;;;2.90;99.90;;;;;;5081653;28;20086;-68
2021/04/04 08:03:07;;;;;;;31.85;8.95;;;3.00;99.90;;;;;;5072334;28;20047;-67
2021/04/04 08:05:38;;;;;;;32.13;7.95;;;3.10;99.90;;;;;;5079818;28;20051;-66
2021/04/04 08:08:30;;;;;;;36.47;8.27;;;3.00;99.90;;;;;;5067202;28;20503;-68
2021/04/04 08:11:01;;;;;;;36.65;8.75;;;3.10;99.90;;;;;;5089261;28;20036;-70
2021/04/04 08:13:50;;;;;;;27.40;8.68;;;3.10;99.90;;;;;;5068589;28;20055;-67
2021/04/04 08:16:28;;;;;;;39.70;10.10;;;3.10;99.90;;;;;;5072518;28;20047;-67
2021/04/04 08:18:53;;;;;;;34.67;9.40;;;3.10;99.90;;;;;;5072311;28;20133;-67
2021/04/04 08:21:49;;;;;;;34.90;10.55;;;3.30;99.90;;;;;;5071698;28;20040;-69
2021/04/04 08:24:33;;;;;;;27.17;10.00;;;3.20;99.90;;;;;;5091037;28;20039;-68
2021/04/04 08:27:32;;;;;;;28.75;8.63;;;3.00;99.90;;;;;;5071927;28;20047;-69
2021/04/04 08:30:17;;;;;;;31.30;9.15;;;3.10;99.90;;;;;;5063848;28;20131;-69
2021/04/04 08:32:51;;;;;;;40.17;15.15;;;3.20;99.90;;;;;;5071770;28;20040;-67
2021/04/04 08:35:26;;;;;;;33.97;10.55;;;3.40;99.90;;;;;;5066678;28;20040;-69
2021/04/04 08:38:20;;;;;;;31.52;9.80;;;3.50;99.90;;;;;;5073195;28;20044;-67
2021/04/04 08:40:48;;;;;;;31.95;8.85;;;3.30;99.90;;;;;;5091249;28;20048;-68
2021/04/04 08:43:16;;;;;;;31.60;8.90;;;3.10;99.90;;;;;;5073237;28;20047;-69
2021/04/04 08:45:46;;;;;;;27.98;9.68;;;3.10;99.90;;;;;;5068706;28;20040;-68
2021/04/04 08:48:15;;;;;;;35.00;8.70;;;3.30;99.90;;;;;;5069698;28;20075;-68
2021/04/04 08:50:44;;;;;;;28.92;7.78;;;3.40;99.90;;;;;;5053114;28;20045;-69
2021/04/04 08:53:25;;;;;;;28.50;8.48;;;3.40;99.90;;;;;;5048755;28;20405;-68
2021/04/04 08:55:52;;;;;;;31.70;8.23;;;3.40;99.90;;;;;;5048183;28;20040;-68
2021/04/04 08:58:30;;;;;;;31.17;8.43;;;3.40;99.90;;;;;;5062760;28;20045;-67
2021/04/04 09:01:03;;;;;;;36.20;8.80;;;3.50;99.90;;;;;;5067157;28;20088;-68
2021/04/04 09:03:30;;;;;;;22.15;6.90;;;3.50;99.90;;;;;;5050433;28;20044;-66
2021/04/04 09:06:02;;;;;;;34.28;8.73;;;3.70;99.90;;;;;;5050904;28;20044;-67
2021/04/04 09:08:29;;;;;;;28.60;7.60;;;3.70;99.70;;;;;;5044651;28;20087;-65
2021/04/04 09:10:59;;;;;;;28.73;7.80;;;3.60;99.70;;;;;;5039345;28;20040;-67
2021/04/04 09:13:31;;;;;;;38.67;13.32;;;3.70;99.90;;;;;;5039221;28;20080;-68
2021/04/04 09:15:59;;;;;;;27.23;8.95;;;3.80;99.90;;;;;;5046394;28;20576;-68
2021/04/04 09:18:26;;;;;;;34.17;8.10;;;3.90;99.80;;;;;;5051543;28;20044;-67
2021/04/04 09:21:07;;;;;;;21.13;7.25;;;3.70;99.00;;;;;;5058433;28;20384;-66
2021/04/04 09:23:36;;;;;;;26.30;7.35;;;3.70;99.80;;;;;;5061429;28;20041;-68
2021/04/04 09:26:09;;;;;;;22.13;6.47;;;3.70;99.20;;;;;;5059548;28;20049;-67
2021/04/04 09:28:38;;;;;;;20.85;6.68;;;3.80;99.20;;;;;;5072436;28;20035;-68
2021/04/04 09:31:42;;;;;;;22.48;6.85;;;3.90;98.70;;;;;;5044906;28;20033;-67
2021/04/04 09:34:18;;;;;;;20.15;6.93;;;3.90;98.60;;;;;;4987261;28;20461;-68
2021/04/04 09:36:50;;;;;;;25.48;7.20;;;4.00;98.70;;;;;;5038865;28;20623;-68
2021/04/04 09:39:29;;;;;;;24.63;7.13;;;4.00;98.00;;;;;;5050315;28;20098;-67
2021/04/04 09:41:57;;;;;;;26.75;7.85;;;3.80;98.20;;;;;;5049974;28;20564;-68
2021/04/04 09:44:34;;;;;;;19.30;6.80;;;3.80;98.40;;;;;;5050101;28;20087;-69
2021/04/04 09:47:01;;;;;;;35.88;7.85;;;4.00;98.70;;;;;;5076850;28;20036;-66
2021/04/04 09:49:43;;;;;;;21.80;7.70;;;4.10;98.90;;;;;;5081651;28;20044;-67
2021/04/04 09:52:15;;;;;;;28.27;8.07;;;4.20;97.70;;;;;;5069915;28;20107;-68
2021/04/04 09:55:03;;;;;;;21.58;6.90;;;4.20;98.00;;;;;;5084564;28;20048;-66
2021/04/04 09:57:29;;;;;;;28.10;8.35;;;4.40;98.30;;;;;;5087542;28;20040;-66
2021/04/04 09:59:57;;;;;;;32.72;10.80;;;4.10;98.00;;;;;;5079804;28;20036;-69
2021/04/04 10:02:36;;;;;;;31.70;7.80;;;4.10;98.20;;;;;;5083113;28;20063;-69
2021/04/04 10:05:04;;;;;;;24.90;7.13;;;4.30;98.20;;;;;;5070627;28;20033;-69
2021/04/04 10:07:33;;;;;;;26.85;6.82;;;4.40;97.60;;;;;;5081604;28;20113;-67
2021/04/04 10:10:00;;;;;;;21.00;7.05;;;4.50;97.30;;;;;;5088594;28;20521;-67
2021/04/04 10:12:26;;;;;;;25.58;7.25;;;4.60;97.40;;;;;;5079600;28;20040;-69
2021/04/04 10:15:08;;;;;;;24.17;7.63;;;4.50;96.20;;;;;;5068674;28;20079;-69
2021/04/04 10:17:34;;;;;;;34.30;7.53;;;4.20;97.60;;;;;;5074055;28;20056;-69
2021/04/04 10:20:03;;;;;;;21.73;7.15;;;4.10;97.80;;;;;;5067033;28;20043;-72
2021/04/04 10:22:49;;;;;;;23.75;6.38;;;4.20;97.20;;;;;;5066304;28;20036;-66
2021/04/04 10:25:16;;;;;;;24.20;6.53;;;4.30;97.60;;;;;;5071149;28;20050;-68
2021/04/04 10:27:42;;;;;;;28.48;6.85;;;4.50;97.70;;;;;;5079272;28;20036;-69
2021/04/04 10:30:11;;;;;;;;;;;4.60;97.50;;;;;;5078554;28;20039;-68
2021/04/04 10:32:38;;;;;;;25.88;8.10;;;4.70;96.20;;;;;;5102290;28;19916;-68
2021/04/04 10:35:07;;;;;;;25.90;7.75;;;4.80;96.80;;;;;;5085899;28;20540;-70
2021/04/04 10:37:33;;;;;;;27.48;6.85;;;4.80;96.80;;;;;;5086313;28;20036;-68
2021/04/04 10:39:59;;;;;;;;;;;4.90;96.80;;;;;;5081992;28;20089;-68
2021/04/04 10:42:26;;;;;;;32.58;6.70;;;4.80;96.70;;;;;;5083583;28;19942;-68
2021/04/04 10:45:14;;;;;;;25.58;6.60;;;4.70;96.40;;;;;;5069770;28;20661;-67
2021/04/04 10:47:41;;;;;;;33.38;6.97;;;4.70;97.50;;;;;;5067109;28;20104;-69
2021/04/04 10:50:11;;;;;;;22.30;6.07;;;4.80;97.40;;;;;;5058442;28;20076;-69
2021/04/04 10:52:41;;;;;;;22.73;6.70;;;5.00;97.10;;;;;;5078568;28;20050;-68
2021/04/04 10:55:09;;;;;;;24.80;6.97;;;5.10;96.90;;;;;;5065716;28;20032;-67
2021/04/04 10:57:37;;;;;;;22.70;6.07;;;5.10;95.80;;;;;;5065066;28;20497;-69
2021/04/04 11:00:06;;;;;;;25.90;6.78;;;4.80;95.70;;;;;;5081693;28;20040;-71
2021/04/04 11:02:32;;;;;;;22.25;5.80;;;5.00;96.60;;;;;;5061472;28;20059;-69
2021/04/04 11:04:58;;;;;;;21.52;5.97;;;5.30;96.70;;;;;;5058128;28;20051;-68
2021/04/04 11:07:24;;;;;;;21.95;6.53;;;5.60;95.80;;;;;;5053351;28;20284;-67
2021/04/04 11:09:49;;;;;;;;;;;5.80;94.70;;;;;;5069446;28;20732;-67
2021/04/04 11:12:17;;;;;;;17.10;6.00;;;6.00;94.80;;;;;;5061951;28;19974;-67
2021/04/04 11:14:48;;;;;;;20.05;7.28;;;5.90;94.10;;;;;;5048708;28;20048;-68
2021/04/04 11:17:19;;;;;;;19.20;5.75;;;5.80;93.70;;;;;;5031257;28;20075;-69
2021/04/04 11:19:47;;;;;;;28.45;5.88;;;5.60;94.40;;;;;;5030325;28;20045;-67
2021/04/04 11:22:16;;;;;;;24.17;7.85;;;5.80;94.60;;;;;;5040547;28;20044;-67
2021/04/04 11:25:10;;;;;;;17.80;6.68;;;5.60;94.70;;;;;;5054151;28;20087;-68
2021/04/04 11:27:47;;;;;;;32.45;6.75;;;5.60;94.80;;;;;;5043538;28;20102;-69
2021/04/04 11:30:37;;;;;;;17.95;5.85;;;5.70;94.30;;;;;;5069160;28;20549;-68
2021/04/04 11:33:19;;;;;;;25.33;6.82;;;5.60;95.00;;;;;;5077851;28;20450;-68
2021/04/04 11:36:08;;;;;;;17.40;5.35;;;5.30;95.10;;;;;;5096946;28;20043;-69
2021/04/04 11:38:38;;;;;;;22.23;6.85;;;5.40;96.10;;;;;;5074343;28;20041;-69
2021/04/04 11:41:20;;;;;;;18.42;6.00;;;5.20;95.10;;;;;;5083634;28;20032;-68
2021/04/04 11:43:52;;;;;;;24.52;5.63;;;5.30;96.20;;;;;;5101843;28;20067;-70
2021/04/04 11:46:59;;;;;;;25.20;4.55;;;5.40;96.00;;;;;;5076443;28;20101;-68
2021/04/04 11:49:28;;;;;;;21.73;5.43;;;5.50;95.80;;;;;;5086351;28;20048;-69
2021/04/04 11:52:07;;;;;;;13.07;4.35;;;5.40;96.80;;;;;;5076562;28;20043;-70
2021/04/04 11:54:45;;;;;;;15.15;4.90;;;5.60;95.60;;;;;;5086264;28;20481;-67
2021/04/04 11:57:35;;;;;;;18.23;5.68;;;5.70;95.80;;;;;;5086135;28;20039;-69
2021/04/04 12:00:12;;;;;;;20.42;4.57;;;5.60;95.10;;;;;;5080517;28;20138;-70
2021/04/04 12:02:45;;;;;;;21.67;5.40;;;5.40;95.70;;;;;;5083624;28;20040;-69
2021/04/04 12:05:16;;;;;;;19.58;5.10;;;5.40;95.60;;;;;;5096545;28;20040;-67
2021/04/04 12:07:47;;;;;;;17.67;5.28;;;5.30;96.90;;;;;;5100664;28;20032;-67
2021/04/04 12:10:16;;;;;;;13.73;5.03;;;5.60;95.70;;;;;;5082215;28;20126;-67
2021/04/04 12:12:43;;;;;;;21.90;5.00;;;5.70;95.80;;;;;;5083548;28;20047;-67
2021/04/04 12:15:16;;;;;;;21.08;5.90;;;5.80;96.00;;;;;;5088200;28;20481;-68
2021/04/04 12:17:52;;;;;;;17.73;4.72;;;5.70;95.50;;;;;;5092426;28;20077;-67
2021/04/04 12:20:24;;;;;;;16.10;6.13;;;5.40;96.30;;;;;;5109480;28;20038;-69
2021/04/04 12:22:50;;;;;;;22.20;7.63;;;5.60;96.30;;;;;;5108622;28;20176;-68
2021/04/04 12:25:22;;;;;;;;;;;5.90;96.30;;;;;;5109741;28;20138;-69
2021/04/04 12:27:51;;;;;;;15.07;5.47;;;6.20;96.30;;;;;;5089880;28;19962;-68
2021/04/04 12:30:29;;;;;;;22.75;6.80;;;6.20;94.90;;;;;;5098431;28;20035;-68
2021/04/04 12:33:17;;;;;;;22.52;7.10;;;6.30;95.20;;;;;;5092903;28;20032;-69
2021/04/04 12:35:51;;;;;;;21.17;5.47;;;6.30;95.60;;;;;;5088278;28;20051;-68
2021/04/04 12:38:25;;;;;;;17.10;5.00;;;6.30;95.40;;;;;;5097644;28;20036;-70
2021/04/04 12:40:52;;;;;;;13.48;5.30;;;6.40;95.00;;;;;;5073276;28;20044;-69
2021/04/04 12:43:21;;;;;;;15.55;7.60;;;6.50;95.00;;;;;;5070953;28;20041;-70
2021/04/04 12:45:48;;;;;;;13.30;4.47;;;6.50;94.10;;;;;;5069067;28;20101;-68
2021/04/04 12:48:18;;;;;;;63.38;35.15;;;6.50;94.80;;;;;;5070212;28;20032;-70
2021/04/04 12:50:56;;;;;;;21.38;5.90;;;6.60;94.50;;;;;;5086006;28;20047;-68
2021/04/04 12:53:25;;;;;;;12.65;4.60;;;6.50;94.20;;;;;;5088595;28;20048;-67
2021/04/04 12:55:52;;;;;;;10.98;3.38;;;6.40;94.30;;;;;;5088191;28;20040;-69
2021/04/04 12:58:18;;;;;;;14.30;4.32;;;6.30;94.50;;;;;;5079729;28;20032;-70
2021/04/04 13:00:47;;;;;;;9.60;4.28;;;6.30;95.10;;;;;;5072792;28;20068;-67
2021/04/04 13:03:17;;;;;;;12.57;5.65;;;6.40;95.10;;;;;;5081909;28;20052;-68
2021/04/04 13:05:52;;;;;;;10.07;4.88;;;6.30;94.50;;;;;;5087447;28;20641;-67
2021/04/04 13:08:20;;;;;;;15.98;5.40;;;6.40;94.70;;;;;;5094577;28;20078;-67
2021/04/04 13:11:00;;;;;;;10.23;4.65;;;6.30;94.70;;;;;;5094428;28;20036;-68
2021/04/04 13:13:28;;;;;;;11.68;5.60;;;6.30;95.40;;;;;;5085804;28;20117;-69
2021/04/04 13:15:59;;;;;;;16.63;6.50;;;6.20;95.40;;;;;;5075510;28;20036;-68